Time;durP1;ratioP1;P1;durP2;ratioP2;P2;SDS_P1;SDS_P2;PMS_P1;PMS_P2;Temp;Humidity;BMP_temperature;BMP_pressure;BME280_temperature;BME280_humidity;BME280_pressure;Samples;Min_cycle;Max_cycle;Signal;HPM_P1;HPM_P2
2022/09/04 00:04:04;;;;;;;3.33;2.47;;;16.20;99.90;;;;;;10474384;28;20876;-71
2022/09/04 00:09:25;;;;;;;4.10;2.50;;;16.10;99.90;;;;;;10465418;28;20223;-71
2022/09/04 00:14:31;;;;;;;3.30;2.50;;;16.10;99.90;;;;;;10462843;28;20310;-71
2022/09/04 00:19:58;;;;;;;3.83;2.50;;;16.10;99.90;;;;;;10450209;28;20668;-71
2022/09/04 00:25:10;;;;;;;3.00;2.70;;;16.20;99.90;;;;;;10473379;28;20225;-70
2022/09/04 00:30:21;;;;;;;2.67;2.20;;;16.10;99.90;;;;;;10457143;28;20313;-70
2022/09/04 00:35:56;;;;;;;3.17;2.43;;;16.10;99.90;;;;;;10470578;28;20831;-70
2022/09/04 00:41:03;;;;;;;5.13;3.07;;;16.10;99.90;;;;;;10472409;28;20845;-70
2022/09/04 00:46:24;;;;;;;3.00;2.70;;;16.10;99.90;;;;;;10465827;28;20223;-70
2022/09/04 00:51:49;;;;;;;7.60;6.20;;;16.10;99.90;;;;;;10463564;28;20236;-70
2022/09/04 00:57:27;;;;;;;4.60;4.07;;;16.10;99.90;;;;;;10475293;28;20230;-70
2022/09/04 01:02:58;;;;;;;5.50;3.90;;;16.00;99.90;;;;;;10490903;28;20308;-70
2022/09/04 01:08:06;;;;;;;3.17;2.53;;;16.00;99.90;;;;;;10479080;28;20297;-71
2022/09/04 01:13:15;;;;;;;3.80;2.77;;;16.00;99.90;;;;;;10470785;28;20228;-70
2022/09/04 01:18:49;;;;;;;4.07;2.80;;;15.90;99.90;;;;;;10479081;28;20217;-70
2022/09/04 01:24:28;;;;;;;3.77;2.40;;;15.80;99.90;;;;;;10476358;28;20259;-70
2022/09/04 01:29:40;;;;;;;3.03;2.73;;;15.80;99.90;;;;;;10468520;28;20212;-71
2022/09/04 01:35:03;;;;;;;3.00;2.70;;;15.80;99.90;;;;;;10476175;28;20219;-71
2022/09/04 01:40:23;;;;;;;3.70;2.90;;;15.80;99.90;;;;;;10471082;28;20699;-71
2022/09/04 01:45:40;;;;;;;3.43;2.50;;;15.80;99.90;;;;;;10467142;28;21227;-71
2022/09/04 01:50:43;;;;;;;7.27;2.90;;;15.90;99.90;;;;;;10473553;28;20218;-70
2022/09/04 01:55:54;;;;;;;3.07;2.77;;;15.80;99.90;;;;;;10470169;28;20234;-70
2022/09/04 02:01:14;;;;;;;3.07;2.77;;;15.70;99.90;;;;;;10471408;28;20238;-70
2022/09/04 02:06:22;;;;;;;4.33;3.03;;;15.60;99.90;;;;;;10464187;28;20233;-70
2022/09/04 02:11:26;;;;;;;3.40;2.57;;;15.60;99.90;;;;;;10471248;28;20222;-70
2022/09/04 02:16:55;;;;;;;3.30;3.00;;;15.60;99.90;;;;;;10471514;28;20238;-70
2022/09/04 02:22:14;;;;;;;3.53;3.00;;;15.60;99.90;;;;;;10470198;28;20708;-72
2022/09/04 02:27:29;;;;;;;3.67;2.60;;;15.50;99.90;;;;;;10463189;28;20628;-70
2022/09/04 02:32:44;;;;;;;3.10;2.80;;;15.50;99.90;;;;;;10475050;28;20301;-70
2022/09/04 02:37:59;;;;;;;3.97;2.83;;;15.50;99.90;;;;;;10474806;28;20231;-70
2022/09/04 02:43:24;;;;;;;3.70;2.43;;;15.50;99.90;;;;;;10469841;28;20230;-71
2022/09/04 02:48:33;;;;;;;3.20;2.80;;;15.50;99.90;;;;;;10465794;28;20210;-71
2022/09/04 02:54:03;;;;;;;3.20;2.90;;;15.50;99.90;;;;;;10473660;28;20284;-70
2022/09/04 02:59:22;;;;;;;4.00;3.30;;;15.40;99.90;;;;;;10468345;28;20283;-70
2022/09/04 03:04:32;;;;;;;4.23;2.80;;;15.50;99.90;;;;;;10464078;28;20237;-70
2022/09/04 03:09:39;;;;;;;3.43;3.13;;;15.50;99.90;;;;;;10472695;28;20239;-70
2022/09/04 03:14:47;;;;;;;3.87;3.20;;;15.50;99.90;;;;;;10471524;28;20309;-70
2022/09/04 03:19:56;;;;;;;5.43;3.30;;;15.60;99.90;;;;;;10470457;28;20320;-70
2022/09/04 03:25:35;;;;;;;3.90;3.50;;;15.70;99.90;;;;;;10473790;28;20237;-71
2022/09/04 03:30:38;;;;;;;4.30;3.90;;;15.80;99.90;;;;;;10470445;28;20221;-70
2022/09/04 03:36:01;;;;;;;4.93;3.37;;;15.90;99.90;;;;;;10467934;28;20222;-70
2022/09/04 03:41:08;;;;;;;3.97;3.63;;;16.10;99.90;;;;;;10466147;28;20228;-71
2022/09/04 03:46:27;;;;;;;4.50;3.97;;;16.20;99.90;;;;;;10458311;28;20229;-71
2022/09/04 03:52:10;;;;;;;4.73;4.23;;;16.30;99.90;;;;;;10466697;28;20237;-70
2022/09/04 03:57:39;;;;;;;4.83;4.33;;;16.50;99.90;;;;;;10459621;28;20225;-70
2022/09/04 04:03:18;;;;;;;5.30;4.63;;;16.60;99.90;;;;;;10469339;28;20315;-69
2022/09/04 04:08:55;;;;;;;6.93;6.23;;;16.70;99.90;;;;;;10461286;28;20591;-70
2022/09/04 04:14:09;;;;;;;8.50;7.20;;;16.80;99.90;;;;;;10482086;28;20224;-70
2022/09/04 04:19:15;;;;;;;10.57;9.57;;;16.80;99.90;;;;;;10458710;28;20220;-71
2022/09/04 04:24:37;;;;;;;10.30;9.13;;;16.80;99.90;;;;;;10473710;28;20723;-71
2022/09/04 04:29:53;;;;;;;10.80;9.70;;;16.90;99.90;;;;;;10477400;28;20296;-71
2022/09/04 04:35:03;;;;;;;9.03;8.10;;;16.90;99.90;;;;;;10480450;28;20307;-71
2022/09/04 04:40:11;;;;;;;7.47;6.77;;;17.00;99.90;;;;;;10482070;28;20217;-71
2022/09/04 04:45:55;;;;;;;18.00;9.83;;;17.00;99.90;;;;;;10466608;28;20245;-71
2022/09/04 04:51:04;;;;;;;30.67;15.33;;;17.00;99.90;;;;;;10428454;28;20336;-70
2022/09/04 04:56:25;;;;;;;30.70;16.60;;;17.10;99.90;;;;;;10464304;28;20204;-71
2022/09/04 05:01:49;;;;;;;35.73;19.67;;;17.10;99.90;;;;;;10469603;28;20727;-71
2022/09/04 05:06:54;;;;;;;36.50;19.60;;;17.10;99.90;;;;;;10475320;28;20249;-71
2022/09/04 05:12:21;;;;;;;37.10;18.60;;;17.10;99.90;;;;;;10477350;28;20251;-70
2022/09/04 05:17:49;;;;;;;43.40;19.10;;;17.20;99.90;;;;;;10466370;28;20581;-70
2022/09/04 05:22:52;;;;;;;42.00;22.03;;;17.20;99.90;;;;;;10472162;28;20216;-71
2022/09/04 05:28:01;;;;;;;44.93;22.83;;;17.30;99.90;;;;;;10477573;28;20964;-71
2022/09/04 05:33:05;;;;;;;59.97;27.47;;;17.30;99.90;;;;;;10471006;28;20223;-70
2022/09/04 05:38:25;;;;;;;54.70;25.33;;;17.30;99.90;;;;;;10477827;28;20223;-71
2022/09/04 05:43:34;;;;;;;66.00;28.00;;;17.30;99.90;;;;;;10466821;28;20216;-71
2022/09/04 05:48:53;;;;;;;56.27;24.73;;;17.40;99.90;;;;;;10475334;28;20213;-71
2022/09/04 05:54:28;;;;;;;55.23;22.67;;;17.50;99.90;;;;;;10477220;28;20581;-71
2022/09/04 05:59:52;;;;;;;61.90;26.80;;;17.60;99.90;;;;;;10468941;28;20214;-71
2022/09/04 06:05:02;;;;;;;58.57;24.87;;;17.50;99.90;;;;;;10472188;28;20314;-71
2022/09/04 06:10:02;;;;;;;58.70;27.17;;;17.50;99.90;;;;;;10470990;28;20216;-71
2022/09/04 06:15:13;;;;;;;60.00;26.47;;;17.50;99.90;;;;;;10474501;28;20208;-71
2022/09/04 06:20:44;;;;;;;53.03;25.80;;;17.60;99.90;;;;;;10462815;28;20225;-71
2022/09/04 06:25:44;;;;;;;50.30;23.27;;;17.70;99.90;;;;;;10472329;28;20219;-71
2022/09/04 06:30:54;;;;;;;47.40;23.20;;;17.70;99.90;;;;;;10474460;28;20209;-71
2022/09/04 06:36:01;;;;;;;52.70;24.87;;;17.80;99.90;;;;;;10471196;28;20599;-70
2022/09/04 06:41:25;;;;;;;43.20;21.23;;;17.90;99.90;;;;;;10476432;28;20304;-71
2022/09/04 06:47:03;;;;;;;42.10;21.97;;;17.90;99.90;;;;;;10465182;28;20225;-71
2022/09/04 06:52:27;;;;;;;36.33;21.03;;;18.00;99.90;;;;;;10468305;28;20230;-71
2022/09/04 06:58:05;;;;;;;41.47;20.50;;;18.20;99.90;;;;;;10465917;28;20217;-71
2022/09/04 07:03:43;;;;;;;40.60;22.03;;;18.30;99.90;;;;;;10467999;28;20260;-71
2022/09/04 07:09:11;;;;;;;31.60;17.83;;;18.40;99.90;;;;;;10469538;28;20207;-71
2022/09/04 07:14:53;;;;;;;28.80;17.23;;;18.70;99.90;;;;;;10461972;28;20248;-71
2022/09/04 07:20:06;;;;;;;24.90;15.13;;;18.80;99.90;;;;;;10473748;28;20245;-71
2022/09/04 07:25:28;;;;;;;19.30;12.47;;;18.80;99.90;;;;;;10465265;28;20224;-71
2022/09/04 07:30:38;;;;;;;16.90;11.93;;;18.90;99.90;;;;;;10464940;28;20218;-69
2022/09/04 07:35:57;;;;;;;18.13;12.00;;;19.20;99.90;;;;;;10471297;28;20216;-71
2022/09/04 07:41:29;;;;;;;17.10;12.53;;;19.70;99.90;;;;;;10464952;28;20756;-70
2022/09/04 07:47:13;;;;;;;16.17;11.70;;;20.20;99.90;;;;;;10463876;28;20225;-71
2022/09/04 07:52:40;;;;;;;16.17;11.83;;;20.30;99.90;;;;;;10453886;28;20343;-70
2022/09/04 07:58:19;;;;;;;15.97;12.00;;;20.20;99.90;;;;;;10457085;28;20302;-70
2022/09/04 08:03:49;;;;;;;15.40;12.40;;;20.30;99.90;;;;;;10467832;28;20234;-70
2022/09/04 08:09:20;;;;;;;16.17;12.47;;;20.40;99.90;;;;;;10475518;28;20706;-71
2022/09/04 08:14:45;;;;;;;14.83;12.03;;;20.60;99.90;;;;;;10469405;28;20310;-70
2022/09/04 08:19:57;;;;;;;15.93;14.23;;;20.70;99.90;;;;;;10477388;28;20211;-71
2022/09/04 08:25:28;;;;;;;15.90;13.47;;;20.90;99.90;;;;;;10480768;28;20295;-71
2022/09/04 08:30:40;;;;;;;15.87;14.27;;;21.40;99.90;;;;;;10470241;28;20211;-71
2022/09/04 08:35:59;;;;;;;14.93;13.07;;;21.70;99.90;;;;;;10477955;28;20258;-70
2022/09/04 08:41:24;;;;;;;20.13;18.03;;;21.80;99.90;;;;;;10479141;28;20212;-71
2022/09/04 08:47:12;;;;;;;20.67;18.57;;;21.80;99.90;;;;;;10468553;28;20782;-71
2022/09/04 08:52:49;;;;;;;15.27;13.67;;;22.20;99.90;;;;;;10465427;28;20280;-70
2022/09/04 08:58:20;;;;;;;17.03;15.13;;;22.70;99.90;;;;;;10490943;28;20251;-71
2022/09/04 09:03:40;;;;;;;17.67;15.90;;;23.40;99.90;;;;;;10467285;28;20220;-71
2022/09/04 09:09:05;;;;;;;15.23;13.73;;;24.80;99.90;;;;;;10476084;28;20221;-72
2022/09/04 09:14:37;;;;;;;14.87;13.37;;;26.70;99.90;;;;;;10472494;28;20716;-70
2022/09/04 09:20:13;;;;;;;16.67;15.00;;;29.10;99.50;;;;;;10471717;28;20230;-71
2022/09/04 09:25:19;;;;;;;16.10;14.60;;;30.20;93.70;;;;;;10463258;28;20282;-70
2022/09/04 09:30:21;;;;;;;13.53;12.20;;;31.30;85.00;;;;;;10473532;28;20173;-71
2022/09/04 09:36:06;;;;;;;15.93;14.33;;;31.20;82.40;;;;;;10473048;28;20195;-70
2022/09/04 09:41:24;;;;;;;15.97;14.47;;;30.70;80.40;;;;;;10487179;28;20216;-71
2022/09/04 09:46:50;;;;;;;15.67;14.27;;;30.70;79.50;;;;;;10467592;28;20209;-70
2022/09/04 09:52:26;;;;;;;19.13;17.33;;;31.90;76.10;;;;;;10472908;28;20236;-70
2022/09/04 09:57:43;;;;;;;19.40;17.53;;;32.90;68.10;;;;;;10464624;28;20224;-71
2022/09/04 10:03:08;;;;;;;14.80;13.40;;;33.80;66.70;;;;;;10471789;28;20219;-70
2022/09/04 10:08:42;;;;;;;16.70;15.17;;;34.90;59.30;;;;;;10462451;28;20299;-70
2022/09/04 10:14:06;;;;;;;14.83;13.40;;;36.40;54.90;;;;;;10471401;28;20207;-71
2022/09/04 10:19:50;;;;;;;14.13;12.73;;;37.20;52.50;;;;;;10470144;28;20212;-70
2022/09/04 10:25:35;;;;;;;12.73;11.53;;;39.30;47.20;;;;;;10472026;28;20334;-70
2022/09/04 10:31:13;;;;;;;15.90;14.43;;;40.30;44.50;;;;;;10448800;28;20282;-70
2022/09/04 10:36:32;;;;;;;14.83;13.53;;;40.50;43.40;;;;;;10462507;28;20220;-69
2022/09/04 10:41:44;;;;;;;12.23;10.87;;;41.40;40.70;;;;;;10473799;28;20223;-70
2022/09/04 10:46:55;;;;;;;9.17;8.37;;;41.80;39.90;;;;;;10476848;28;20303;-70
2022/09/04 10:52:29;;;;;;;9.93;8.93;;;41.70;39.70;;;;;;10468496;28;20231;-70
2022/09/04 10:57:44;;;;;;;9.83;8.93;;;41.40;39.70;;;;;;10465819;28;20218;-71
2022/09/04 11:03:02;;;;;;;7.63;6.60;;;41.20;39.20;;;;;;10468300;28;20720;-71
2022/09/04 11:08:12;;;;;;;6.33;5.50;;;40.80;39.10;;;;;;10468216;28;20235;-71
2022/09/04 11:13:31;;;;;;;9.40;6.03;;;40.50;39.50;;;;;;10460686;28;20315;-71
2022/09/04 11:18:40;;;;;;;7.37;6.67;;;35.90;46.20;;;;;;10471572;28;20239;-70
2022/09/04 11:24:02;;;;;;;8.17;6.20;;;32.40;53.60;;;;;;10471220;28;20230;-70
2022/09/04 11:29:29;;;;;;;8.07;6.77;;;29.80;60.40;;;;;;10467671;28;20610;-71
2022/09/04 11:34:54;;;;;;;5.30;4.30;;;28.50;64.40;;;;;;10464049;28;20218;-70
2022/09/04 11:40:06;;;;;;;4.83;3.70;;;27.70;68.50;;;;;;10468382;28;20231;-69
2022/09/04 11:45:37;;;;;;;4.00;3.40;;;27.30;69.50;;;;;;10472360;28;20232;-70
2022/09/04 11:51:17;;;;;;;5.23;3.77;;;26.90;70.60;;;;;;10466599;28;20209;-70
2022/09/04 11:56:32;;;;;;;2.43;2.17;;;26.70;74.10;;;;;;10471584;28;20213;-71
2022/09/04 12:01:52;;;;;;;3.53;2.20;;;26.70;70.00;;;;;;10462640;28;20278;-70
2022/09/04 12:07:15;;;;;;;3.00;2.73;;;26.70;70.80;;;;;;10468903;28;20217;-71
2022/09/04 12:12:36;;;;;;;3.53;3.00;;;26.70;73.90;;;;;;10460358;28;20269;-71
2022/09/04 12:18:22;;;;;;;1.90;1.80;;;26.40;72.80;;;;;;10470048;28;20239;-71
2022/09/04 12:23:48;;;;;;;1.47;1.20;;;26.30;72.00;;;;;;10461698;28;20216;-70
2022/09/04 12:29:13;;;;;;;1.70;1.60;;;26.30;69.00;;;;;;10469382;28;20224;-71
2022/09/04 12:34:27;;;;;;;1.63;1.53;;;26.20;71.90;;;;;;10458719;28;20230;-71
2022/09/04 12:39:36;;;;;;;1.77;1.67;;;26.10;71.60;;;;;;10474538;28;20238;-71
2022/09/04 12:44:58;;;;;;;2.27;2.00;;;26.10;70.10;;;;;;10473845;28;20660;-69
2022/09/04 12:50:40;;;;;;;1.20;1.13;;;26.00;72.50;;;;;;10473073;28;20240;-71
2022/09/04 12:55:55;;;;;;;1.73;1.63;;;25.90;68.20;;;;;;10465530;28;20225;-71
2022/09/04 13:01:14;;;;;;;2.17;1.80;;;25.90;71.90;;;;;;10473565;28;20228;-71
2022/09/04 13:06:22;;;;;;;1.80;1.70;;;25.90;72.50;;;;;;10466119;28;20213;-71
2022/09/04 13:12:02;;;;;;;2.67;1.40;;;26.00;70.90;;;;;;10477687;28;20709;-71
2022/09/04 13:17:33;;;;;;;1.40;1.30;;;26.00;67.40;;;;;;10480084;28;20250;-70
2022/09/04 13:23:02;;;;;;;1.97;1.60;;;26.10;66.50;;;;;;10472468;28;20230;-70
2022/09/04 13:28:36;;;;;;;2.23;1.80;;;26.10;66.80;;;;;;10472722;28;20220;-70
2022/09/04 13:34:00;;;;;;;2.00;1.90;;;26.10;70.70;;;;;;10471493;28;20882;-70
2022/09/04 13:39:06;;;;;;;2.07;1.90;;;26.10;70.70;;;;;;10472579;28;20268;-70
2022/09/04 13:44:10;;;;;;;1.43;1.33;;;25.90;71.60;;;;;;10479409;28;20762;-71
2022/09/04 13:49:15;;;;;;;1.70;1.60;;;25.90;68.80;;;;;;10479072;28;20208;-71
2022/09/04 13:54:29;;;;;;;1.70;1.60;;;25.90;69.30;;;;;;10471890;28;20228;-71
2022/09/04 13:59:31;;;;;;;1.40;1.30;;;25.90;69.30;;;;;;10474555;28;20224;-70
2022/09/04 14:04:42;;;;;;;2.10;1.53;;;26.10;68.50;;;;;;10467944;28;20227;-71
2022/09/04 14:09:48;;;;;;;1.43;1.33;;;26.20;69.00;;;;;;10473561;28;20215;-70
2022/09/04 14:15:08;;;;;;;1.77;1.50;;;26.20;67.40;;;;;;10471689;28;20226;-71
2022/09/04 14:20:13;;;;;;;1.50;1.40;;;26.20;65.20;;;;;;10478174;28;20222;-70
2022/09/04 14:25:52;;;;;;;1.93;1.60;;;26.20;65.50;;;;;;10453760;28;20216;-70
2022/09/04 14:31:22;;;;;;;1.53;1.43;;;26.30;66.40;;;;;;10472213;28;20218;-70
2022/09/04 14:36:36;;;;;;;2.20;1.50;;;26.20;65.20;;;;;;10464948;28;20225;-71
2022/09/04 14:42:03;;;;;;;2.43;1.73;;;26.20;62.50;;;;;;10468423;28;20251;-71
2022/09/04 14:47:31;;;;;;;1.93;1.47;;;26.20;64.40;;;;;;10443364;28;20223;-70
2022/09/04 14:52:47;;;;;;;2.23;1.53;;;26.30;64.70;;;;;;10467291;28;20239;-70
2022/09/04 14:58:08;;;;;;;1.70;1.47;;;26.20;64.80;;;;;;10460298;28;20217;-71
2022/09/04 15:03:24;;;;;;;1.80;1.70;;;26.20;66.00;;;;;;10460359;28;20271;-70
2022/09/04 15:08:31;;;;;;;1.53;1.43;;;26.10;65.70;;;;;;10475046;28;20219;-71
2022/09/04 15:13:50;;;;;;;2.50;1.60;;;26.10;66.80;;;;;;10471313;28;20243;-71
2022/09/04 15:19:04;;;;;;;2.07;1.83;;;26.10;63.80;;;;;;10470203;28;20235;-70
2022/09/04 15:24:25;;;;;;;1.83;1.47;;;26.00;64.70;;;;;;10475952;28;20223;-70
2022/09/04 15:29:47;;;;;;;1.90;1.80;;;25.90;65.30;;;;;;10462730;28;20262;-70
2022/09/04 15:34:49;;;;;;;1.60;1.20;;;25.90;65.20;;;;;;10472679;28;20751;-70
2022/09/04 15:40:12;;;;;;;1.50;1.10;;;25.90;61.10;;;;;;10470509;28;20316;-71
2022/09/04 15:45:41;;;;;;;3.17;1.30;;;25.80;59.90;;;;;;10459480;28;20236;-70
2022/09/04 15:51:00;;;;;;;1.63;1.53;;;25.80;59.90;;;;;;10475699;28;20215;-70
2022/09/04 15:56:10;;;;;;;1.70;1.60;;;25.70;60.20;;;;;;10467713;28;20240;-70
2022/09/04 16:01:15;;;;;;;1.80;1.30;;;25.60;60.10;;;;;;10454963;28;20213;-70
2022/09/04 16:06:31;;;;;;;3.17;1.63;;;25.50;60.70;;;;;;10467425;28;20305;-70
2022/09/04 16:11:38;;;;;;;1.60;1.50;;;25.40;63.40;;;;;;10471966;28;20281;-71
2022/09/04 16:16:52;;;;;;;2.00;1.30;;;25.30;64.80;;;;;;10469209;28;20223;-71
2022/09/04 16:21:53;;;;;;;2.50;1.60;;;25.20;65.90;;;;;;10471710;28;20231;-71
2022/09/04 16:26:55;;;;;;;2.60;1.73;;;25.10;64.60;;;;;;10481231;28;20275;-70
2022/09/04 16:31:57;;;;;;;1.30;1.20;;;25.00;64.90;;;;;;10476169;28;20243;-72
2022/09/04 16:37:13;;;;;;;1.80;1.40;;;24.90;65.40;;;;;;10479931;28;20241;-70
2022/09/04 16:42:18;;;;;;;1.93;1.70;;;24.80;65.90;;;;;;10467365;28;20219;-70
2022/09/04 16:47:45;;;;;;;2.20;1.60;;;24.70;66.50;;;;;;10476097;28;20220;-70
2022/09/04 16:53:17;;;;;;;1.27;1.20;;;24.60;68.10;;;;;;10464020;28;20246;-71
2022/09/04 16:58:38;;;;;;;2.63;1.60;;;24.40;68.70;;;;;;10460026;28;20216;-71
2022/09/04 17:03:50;;;;;;;1.57;1.40;;;24.30;69.30;;;;;;10474637;28;20235;-71
2022/09/04 17:09:06;;;;;;;2.53;1.50;;;24.20;70.00;;;;;;10475790;28;20776;-71
2022/09/04 17:14:24;;;;;;;1.60;1.50;;;24.10;70.10;;;;;;10477140;28;20293;-71
2022/09/04 17:19:26;;;;;;;3.47;1.77;;;24.00;70.80;;;;;;10475458;28;20224;-71
2022/09/04 17:24:42;;;;;;;1.40;1.33;;;24.00;71.00;;;;;;10477217;28;20242;-71
2022/09/04 17:30:00;;;;;;;1.90;1.37;;;23.80;71.40;;;;;;10477086;28;20215;-70
2022/09/04 17:35:26;;;;;;;2.67;1.30;;;23.70;72.30;;;;;;10471457;28;20698;-70
2022/09/04 17:40:34;;;;;;;1.70;1.30;;;23.50;73.50;;;;;;10478418;28;20220;-70
2022/09/04 17:46:11;;;;;;;1.77;1.63;;;23.40;73.60;;;;;;10475769;28;20365;-70
2022/09/04 17:51:26;;;;;;;1.80;1.70;;;23.10;75.10;;;;;;10444467;28;20242;-70
2022/09/04 17:56:49;;;;;;;2.57;2.37;;;22.90;76.20;;;;;;10480054;28;20234;-70
2022/09/04 18:02:09;;;;;;;2.50;2.30;;;22.70;78.00;;;;;;10470396;28;20281;-70
2022/09/04 18:07:19;;;;;;;2.47;2.27;;;22.40;79.90;;;;;;10463121;28;20596;-70
2022/09/04 18:12:30;;;;;;;2.40;2.10;;;22.20;81.70;;;;;;10470663;28;20686;-71
2022/09/04 18:17:44;;;;;;;2.53;2.33;;;21.90;83.30;;;;;;10472221;28;20226;-71
2022/09/04 18:23:00;;;;;;;4.03;2.57;;;21.80;85.00;;;;;;10474947;28;20222;-71
2022/09/04 18:28:42;;;;;;;4.07;3.00;;;21.60;88.50;;;;;;10470333;28;20575;-71
2022/09/04 18:34:01;;;;;;;4.27;2.63;;;21.40;89.10;;;;;;10470801;28;20690;-70
2022/09/04 18:39:31;;;;;;;5.23;3.00;;;21.30;90.20;;;;;;10467928;28;20219;-70
2022/09/04 18:44:52;;;;;;;5.37;3.60;;;21.10;91.20;;;;;;10458486;28;20223;-70
2022/09/04 18:49:59;;;;;;;3.10;2.80;;;21.00;92.10;;;;;;10474659;28;20207;-71
2022/09/04 18:55:13;;;;;;;4.53;3.10;;;20.80;93.10;;;;;;10469938;28;20224;-70
2022/09/04 19:00:38;;;;;;;4.30;3.03;;;20.70;93.80;;;;;;10457062;28;20218;-70
2022/09/04 19:05:43;;;;;;;3.30;3.00;;;20.60;94.60;;;;;;10467147;28;20648;-71
2022/09/04 19:10:49;;;;;;;4.27;3.63;;;20.60;96.20;;;;;;10473704;28;20682;-68
2022/09/04 19:16:37;;;;;;;5.30;3.83;;;20.60;96.90;;;;;;10477225;28;20219;-67
2022/09/04 19:22:04;;;;;;;5.43;3.60;;;20.50;97.70;;;;;;10429995;28;20326;-66
2022/09/04 19:27:16;;;;;;;6.00;4.07;;;20.50;99.00;;;;;;10421182;28;20234;-68
2022/09/04 19:32:28;;;;;;;4.57;3.53;;;20.40;99.90;;;;;;10463674;28;20246;-68
2022/09/04 19:37:41;;;;;;;4.97;4.10;;;20.30;99.90;;;;;;10474618;28;20246;-71
2022/09/04 19:42:47;;;;;;;3.97;3.43;;;20.20;99.90;;;;;;10478908;28;20248;-71
2022/09/04 19:47:57;;;;;;;4.37;3.40;;;20.10;99.90;;;;;;10471494;28;20699;-70
2022/09/04 19:53:06;;;;;;;4.50;3.10;;;20.10;99.90;;;;;;10467660;28;20233;-71
2022/09/04 19:58:08;;;;;;;3.50;3.20;;;20.00;99.90;;;;;;10465971;28;20234;-69
2022/09/04 20:03:29;;;;;;;5.67;3.80;;;19.90;99.90;;;;;;10484156;28;20680;-68
2022/09/04 20:08:40;;;;;;;5.50;3.80;;;19.90;99.90;;;;;;10474360;28;20210;-70
2022/09/04 20:13:41;;;;;;;6.30;4.40;;;19.90;99.90;;;;;;10481096;28;20614;-70
2022/09/04 20:18:53;;;;;;;5.77;4.37;;;19.80;99.90;;;;;;10481825;28;20406;-72
2022/09/04 20:24:08;;;;;;;4.57;4.13;;;19.80;99.90;;;;;;10480319;28;20261;-73
2022/09/04 20:29:44;;;;;;;6.60;4.30;;;19.70;99.90;;;;;;10486468;28;20287;-74
2022/09/04 20:34:51;;;;;;;5.20;4.60;;;19.50;99.90;;;;;;10459181;28;20280;-73
2022/09/04 20:40:05;;;;;;;5.53;4.93;;;19.40;99.90;;;;;;10473839;28;20299;-72
2022/09/04 20:45:24;;;;;;;5.13;4.30;;;19.40;99.90;;;;;;10480277;28;20255;-70
2022/09/04 20:50:33;;;;;;;5.77;4.10;;;19.30;99.90;;;;;;10471453;28;20222;-69
2022/09/04 20:55:44;;;;;;;4.70;4.10;;;19.20;99.90;;;;;;10468678;28;20234;-70
2022/09/04 21:01:06;;;;;;;5.50;4.03;;;19.20;99.90;;;;;;10473770;28;20226;-71
2022/09/04 21:06:10;;;;;;;5.13;4.30;;;19.20;99.90;;;;;;10476752;28;20231;-70
2022/09/04 21:11:37;;;;;;;5.13;3.20;;;19.10;99.90;;;;;;10457261;28;20709;-71
2022/09/04 21:17:15;;;;;;;5.77;3.53;;;19.10;99.90;;;;;;10472941;28;20728;-69
2022/09/04 21:22:34;;;;;;;5.90;3.63;;;19.00;99.90;;;;;;10466104;28;20253;-70
2022/09/04 21:27:53;;;;;;;4.13;3.53;;;19.10;99.90;;;;;;10473337;28;20230;-71
2022/09/04 21:33:04;;;;;;;4.80;3.37;;;19.00;99.90;;;;;;10463257;28;20674;-72
2022/09/04 21:38:07;;;;;;;4.47;3.80;;;19.00;99.90;;;;;;10463028;28;20223;-72
2022/09/04 21:43:26;;;;;;;3.90;3.50;;;19.00;99.90;;;;;;10464701;28;20651;-72
2022/09/04 21:48:40;;;;;;;4.03;3.60;;;18.90;99.90;;;;;;10467419;28;20237;-72
2022/09/04 21:54:13;;;;;;;3.47;3.10;;;18.90;99.90;;;;;;10467081;28;20311;-72
2022/09/04 21:59:41;;;;;;;3.50;3.20;;;19.00;99.90;;;;;;10458457;28;20281;-72
2022/09/04 22:04:54;;;;;;;3.50;3.00;;;19.00;99.90;;;;;;10471504;28;20267;-72
2022/09/04 22:10:16;;;;;;;3.33;2.90;;;19.00;99.90;;;;;;10470287;28;20227;-70
2022/09/04 22:15:17;;;;;;;4.57;2.70;;;19.00;99.90;;;;;;10465739;28;20594;-70
2022/09/04 22:20:19;;;;;;;3.53;3.23;;;19.00;99.90;;;;;;10459883;28;20317;-69
2022/09/04 22:25:41;;;;;;;2.70;2.50;;;18.90;99.90;;;;;;10466215;28;20231;-69
2022/09/04 22:31:13;;;;;;;3.00;2.70;;;18.70;99.90;;;;;;10463988;28;20228;-73
2022/09/04 22:36:22;;;;;;;3.40;2.53;;;18.70;99.90;;;;;;10462273;28;20257;-71
2022/09/04 22:41:26;;;;;;;3.43;3.13;;;18.60;99.90;;;;;;10467837;28;20225;-71
2022/09/04 22:46:52;;;;;;;3.80;3.30;;;18.50;99.90;;;;;;10466313;28;20221;-73
2022/09/04 22:52:10;;;;;;;3.60;3.30;;;18.40;99.90;;;;;;10466030;28;20332;-71
2022/09/04 22:57:42;;;;;;;3.80;3.23;;;18.30;99.90;;;;;;10455153;28;20226;-72
2022/09/04 23:03:11;;;;;;;5.87;4.00;;;18.30;99.90;;;;;;10465626;28;20677;-73
2022/09/04 23:08:47;;;;;;;4.90;3.53;;;18.20;99.90;;;;;;10459410;28;20276;-69
2022/09/04 23:14:15;;;;;;;7.83;4.23;;;18.10;99.90;;;;;;10461660;28;20212;-72
2022/09/04 23:19:53;;;;;;;4.13;3.83;;;18.00;99.90;;;;;;10453749;28;20256;-73
2022/09/04 23:25:12;;;;;;;4.53;3.80;;;17.90;99.90;;;;;;10465256;28;20280;-73
2022/09/04 23:30:20;;;;;;;6.17;4.50;;;17.80;99.90;;;;;;10459978;28;20221;-72
2022/09/04 23:35:54;;;;;;;4.43;4.03;;;17.80;99.90;;;;;;10466651;28;20178;-73
2022/09/04 23:41:06;;;;;;;4.77;3.73;;;17.70;99.90;;;;;;10466325;28;20222;-71
2022/09/04 23:46:25;;;;;;;4.10;3.70;;;17.60;99.90;;;;;;10468113;28;20226;-71
2022/09/04 23:51:26;;;;;;;4.33;3.93;;;17.50;99.90;;;;;;10480878;28;20212;-70
2022/09/04 23:56:41;;;;;;;5.83;4.50;;;17.40;99.90;;;;;;10464932;28;20232;-70
